sensor_id;sensor_type;location;lat;lon;timestamp;P1;durP1;ratioP1;P2;durP2;ratioP2
18082;SDS011;9168;51.194;6.840;2023-08-06T00:00:55;6.55;;;4.03;;
18082;SDS011;9168;51.194;6.840;2023-08-06T00:03:22;13.27;;;4.20;;
18082;SDS011;9168;51.194;6.840;2023-08-06T00:05:49;14.95;;;4.78;;
18082;SDS011;9168;51.194;6.840;2023-08-06T00:08:17;6.68;;;4.05;;
18082;SDS011;9168;51.194;6.840;2023-08-06T00:10:44;6.60;;;3.47;;
18082;SDS011;9168;51.194;6.840;2023-08-06T00:13:11;12.52;;;4.15;;
18082;SDS011;9168;51.194;6.840;2023-08-06T00:15:37;9.32;;;3.53;;
18082;SDS011;9168;51.194;6.840;2023-08-06T00:18:04;13.70;;;3.80;;
18082;SDS011;9168;51.194;6.840;2023-08-06T00:20:31;9.27;;;3.72;;
18082;SDS011;9168;51.194;6.840;2023-08-06T00:22:58;9.98;;;3.40;;
18082;SDS011;9168;51.194;6.840;2023-08-06T00:25:26;12.02;;;4.18;;
18082;SDS011;9168;51.194;6.840;2023-08-06T00:27:53;8.70;;;3.80;;
18082;SDS011;9168;51.194;6.840;2023-08-06T00:30:21;9.80;;;3.50;;
18082;SDS011;9168;51.194;6.840;2023-08-06T00:32:48;7.20;;;3.38;;
18082;SDS011;9168;51.194;6.840;2023-08-06T00:35:15;10.05;;;3.95;;
18082;SDS011;9168;51.194;6.840;2023-08-06T00:37:42;10.93;;;3.88;;
18082;SDS011;9168;51.194;6.840;2023-08-06T00:40:09;9.98;;;3.20;;
18082;SDS011;9168;51.194;6.840;2023-08-06T00:42:37;7.00;;;3.75;;
18082;SDS011;9168;51.194;6.840;2023-08-06T00:45:04;7.70;;;3.78;;
18082;SDS011;9168;51.194;6.840;2023-08-06T00:47:31;10.50;;;4.05;;
18082;SDS011;9168;51.194;6.840;2023-08-06T00:49:58;8.68;;;3.97;;
18082;SDS011;9168;51.194;6.840;2023-08-06T00:52:25;10.05;;;3.53;;
18082;SDS011;9168;51.194;6.840;2023-08-06T00:54:52;8.30;;;3.88;;
18082;SDS011;9168;51.194;6.840;2023-08-06T00:57:20;5.63;;;3.28;;
18082;SDS011;9168;51.194;6.840;2023-08-06T00:59:51;8.27;;;3.05;;
18082;SDS011;9168;51.194;6.840;2023-08-06T01:02:19;9.55;;;3.42;;
18082;SDS011;9168;51.194;6.840;2023-08-06T01:04:46;12.00;;;3.40;;
18082;SDS011;9168;51.194;6.840;2023-08-06T01:07:16;6.72;;;3.13;;
18082;SDS011;9168;51.194;6.840;2023-08-06T01:09:54;7.80;;;3.42;;
18082;SDS011;9168;51.194;6.840;2023-08-06T01:12:32;6.70;;;3.20;;
18082;SDS011;9168;51.194;6.840;2023-08-06T01:15:10;10.32;;;3.90;;
18082;SDS011;9168;51.194;6.840;2023-08-06T01:17:43;6.50;;;3.38;;
18082;SDS011;9168;51.194;6.840;2023-08-06T01:20:11;7.82;;;3.25;;
18082;SDS011;9168;51.194;6.840;2023-08-06T01:22:39;7.78;;;3.15;;
18082;SDS011;9168;51.194;6.840;2023-08-06T01:25:07;8.73;;;3.38;;
18082;SDS011;9168;51.194;6.840;2023-08-06T01:27:36;8.73;;;3.28;;
18082;SDS011;9168;51.194;6.840;2023-08-06T01:30:09;4.38;;;2.83;;
18082;SDS011;9168;51.194;6.840;2023-08-06T01:32:41;10.07;;;3.40;;
18082;SDS011;9168;51.194;6.840;2023-08-06T01:35:11;10.57;;;3.53;;
18082;SDS011;9168;51.194;6.840;2023-08-06T01:37:42;6.25;;;3.10;;
18082;SDS011;9168;51.194;6.840;2023-08-06T01:40:10;7.65;;;3.40;;
18082;SDS011;9168;51.194;6.840;2023-08-06T01:42:37;7.10;;;3.30;;
18082;SDS011;9168;51.194;6.840;2023-08-06T01:45:05;5.80;;;3.10;;
18082;SDS011;9168;51.194;6.840;2023-08-06T01:47:33;7.68;;;3.30;;
18082;SDS011;9168;51.194;6.840;2023-08-06T01:50:00;15.23;;;3.38;;
18082;SDS011;9168;51.194;6.840;2023-08-06T01:52:27;9.02;;;3.20;;
18082;SDS011;9168;51.194;6.840;2023-08-06T01:54:55;8.80;;;3.50;;
18082;SDS011;9168;51.194;6.840;2023-08-06T01:57:22;5.68;;;3.17;;
18082;SDS011;9168;51.194;6.840;2023-08-06T01:59:49;7.88;;;3.20;;
18082;SDS011;9168;51.194;6.840;2023-08-06T02:02:16;7.53;;;3.53;;
18082;SDS011;9168;51.194;6.840;2023-08-06T02:04:43;9.35;;;3.83;;
18082;SDS011;9168;51.194;6.840;2023-08-06T02:07:10;14.52;;;4.35;;
18082;SDS011;9168;51.194;6.840;2023-08-06T02:09:37;10.63;;;3.60;;
18082;SDS011;9168;51.194;6.840;2023-08-06T02:12:07;7.80;;;3.47;;
18082;SDS011;9168;51.194;6.840;2023-08-06T02:14:34;9.15;;;3.30;;
18082;SDS011;9168;51.194;6.840;2023-08-06T02:17:01;8.40;;;3.30;;
18082;SDS011;9168;51.194;6.840;2023-08-06T02:19:28;12.98;;;3.47;;
18082;SDS011;9168;51.194;6.840;2023-08-06T02:21:55;11.15;;;3.88;;
18082;SDS011;9168;51.194;6.840;2023-08-06T02:24:21;9.93;;;3.70;;
18082;SDS011;9168;51.194;6.840;2023-08-06T02:26:48;12.00;;;3.75;;
18082;SDS011;9168;51.194;6.840;2023-08-06T02:29:17;10.25;;;3.75;;
18082;SDS011;9168;51.194;6.840;2023-08-06T02:31:44;7.65;;;3.72;;
18082;SDS011;9168;51.194;6.840;2023-08-06T02:34:11;5.57;;;3.30;;
18082;SDS011;9168;51.194;6.840;2023-08-06T02:36:38;8.90;;;3.83;;
18082;SDS011;9168;51.194;6.840;2023-08-06T02:39:05;7.80;;;3.30;;
18082;SDS011;9168;51.194;6.840;2023-08-06T02:41:32;6.85;;;3.45;;
18082;SDS011;9168;51.194;6.840;2023-08-06T02:43:58;5.93;;;2.90;;
18082;SDS011;9168;51.194;6.840;2023-08-06T02:46:27;6.65;;;3.00;;
18082;SDS011;9168;51.194;6.840;2023-08-06T02:48:53;7.57;;;3.90;;
18082;SDS011;9168;51.194;6.840;2023-08-06T02:51:20;9.52;;;3.90;;
18082;SDS011;9168;51.194;6.840;2023-08-06T02:53:47;9.07;;;3.72;;
18082;SDS011;9168;51.194;6.840;2023-08-06T02:56:14;11.60;;;3.53;;
18082;SDS011;9168;51.194;6.840;2023-08-06T02:58:41;10.82;;;3.33;;
18082;SDS011;9168;51.194;6.840;2023-08-06T03:01:08;10.20;;;3.35;;
18082;SDS011;9168;51.194;6.840;2023-08-06T03:03:36;7.35;;;3.25;;
18082;SDS011;9168;51.194;6.840;2023-08-06T03:06:03;11.15;;;3.42;;
18082;SDS011;9168;51.194;6.840;2023-08-06T03:08:30;9.63;;;3.40;;
18082;SDS011;9168;51.194;6.840;2023-08-06T03:10:57;7.20;;;3.25;;
18082;SDS011;9168;51.194;6.840;2023-08-06T03:13:24;7.15;;;3.42;;
18082;SDS011;9168;51.194;6.840;2023-08-06T03:15:51;8.02;;;3.67;;
18082;SDS011;9168;51.194;6.840;2023-08-06T03:18:19;9.95;;;3.35;;
18082;SDS011;9168;51.194;6.840;2023-08-06T03:20:47;10.23;;;3.20;;
18082;SDS011;9168;51.194;6.840;2023-08-06T03:23:14;8.30;;;3.38;;
18082;SDS011;9168;51.194;6.840;2023-08-06T03:25:41;8.90;;;3.55;;
18082;SDS011;9168;51.194;6.840;2023-08-06T03:28:08;11.40;;;3.58;;
18082;SDS011;9168;51.194;6.840;2023-08-06T03:30:35;8.38;;;3.10;;
18082;SDS011;9168;51.194;6.840;2023-08-06T03:33:02;10.35;;;3.28;;
18082;SDS011;9168;51.194;6.840;2023-08-06T03:35:29;11.00;;;3.58;;
18082;SDS011;9168;51.194;6.840;2023-08-06T03:37:57;13.15;;;3.75;;
18082;SDS011;9168;51.194;6.840;2023-08-06T03:40:24;10.52;;;3.30;;
18082;SDS011;9168;51.194;6.840;2023-08-06T03:42:51;11.20;;;3.95;;
18082;SDS011;9168;51.194;6.840;2023-08-06T03:45:18;10.90;;;3.38;;
18082;SDS011;9168;51.194;6.840;2023-08-06T03:47:45;15.32;;;3.95;;
18082;SDS011;9168;51.194;6.840;2023-08-06T03:50:12;10.27;;;3.88;;
18082;SDS011;9168;51.194;6.840;2023-08-06T03:52:39;9.68;;;3.58;;
18082;SDS011;9168;51.194;6.840;2023-08-06T03:55:07;11.32;;;3.58;;
18082;SDS011;9168;51.194;6.840;2023-08-06T03:57:34;9.98;;;3.45;;
18082;SDS011;9168;51.194;6.840;2023-08-06T04:00:01;7.15;;;3.60;;
18082;SDS011;9168;51.194;6.840;2023-08-06T04:02:28;9.52;;;3.35;;
18082;SDS011;9168;51.194;6.840;2023-08-06T04:04:55;10.80;;;3.30;;
18082;SDS011;9168;51.194;6.840;2023-08-06T04:07:24;6.50;;;3.08;;
18082;SDS011;9168;51.194;6.840;2023-08-06T04:09:52;6.05;;;3.00;;
18082;SDS011;9168;51.194;6.840;2023-08-06T04:12:21;18.42;;;3.55;;
18082;SDS011;9168;51.194;6.840;2023-08-06T04:14:47;12.00;;;3.53;;
18082;SDS011;9168;51.194;6.840;2023-08-06T04:17:14;11.95;;;3.08;;
18082;SDS011;9168;51.194;6.840;2023-08-06T04:19:41;8.23;;;3.00;;
18082;SDS011;9168;51.194;6.840;2023-08-06T04:22:08;7.75;;;3.00;;
18082;SDS011;9168;51.194;6.840;2023-08-06T04:24:35;7.85;;;3.42;;
18082;SDS011;9168;51.194;6.840;2023-08-06T04:27:02;6.47;;;3.30;;
18082;SDS011;9168;51.194;6.840;2023-08-06T04:29:31;8.77;;;3.00;;
18082;SDS011;9168;51.194;6.840;2023-08-06T04:31:58;10.15;;;3.25;;
18082;SDS011;9168;51.194;6.840;2023-08-06T04:34:24;6.18;;;3.05;;
18082;SDS011;9168;51.194;6.840;2023-08-06T04:36:51;6.18;;;2.97;;
18082;SDS011;9168;51.194;6.840;2023-08-06T04:39:18;8.25;;;3.00;;
18082;SDS011;9168;51.194;6.840;2023-08-06T04:41:45;10.35;;;3.80;;
18082;SDS011;9168;51.194;6.840;2023-08-06T04:44:12;11.60;;;3.28;;
18082;SDS011;9168;51.194;6.840;2023-08-06T04:46:40;7.20;;;2.83;;
18082;SDS011;9168;51.194;6.840;2023-08-06T04:49:07;10.55;;;3.28;;
18082;SDS011;9168;51.194;6.840;2023-08-06T04:51:34;10.68;;;3.53;;
18082;SDS011;9168;51.194;6.840;2023-08-06T04:54:01;8.27;;;2.88;;
18082;SDS011;9168;51.194;6.840;2023-08-06T04:56:28;11.05;;;3.40;;
18082;SDS011;9168;51.194;6.840;2023-08-06T04:58:55;11.90;;;3.42;;
18082;SDS011;9168;51.194;6.840;2023-08-06T05:01:23;8.63;;;3.20;;
18082;SDS011;9168;51.194;6.840;2023-08-06T05:03:51;9.43;;;3.42;;
18082;SDS011;9168;51.194;6.840;2023-08-06T05:06:18;8.00;;;3.58;;
18082;SDS011;9168;51.194;6.840;2023-08-06T05:08:45;12.48;;;3.90;;
18082;SDS011;9168;51.194;6.840;2023-08-06T05:11:11;6.95;;;3.20;;
18082;SDS011;9168;51.194;6.840;2023-08-06T05:13:38;10.27;;;3.58;;
18082;SDS011;9168;51.194;6.840;2023-08-06T05:16:05;10.93;;;3.50;;
18082;SDS011;9168;51.194;6.840;2023-08-06T05:18:32;9.63;;;3.85;;
18082;SDS011;9168;51.194;6.840;2023-08-06T05:21:01;12.15;;;3.70;;
18082;SDS011;9168;51.194;6.840;2023-08-06T05:23:28;9.38;;;3.75;;
18082;SDS011;9168;51.194;6.840;2023-08-06T05:25:54;9.15;;;3.47;;
18082;SDS011;9168;51.194;6.840;2023-08-06T05:28:21;10.63;;;3.83;;
18082;SDS011;9168;51.194;6.840;2023-08-06T05:30:48;10.40;;;3.55;;
18082;SDS011;9168;51.194;6.840;2023-08-06T05:33:15;12.02;;;3.53;;
18082;SDS011;9168;51.194;6.840;2023-08-06T05:35:42;8.73;;;3.28;;
18082;SDS011;9168;51.194;6.840;2023-08-06T05:38:10;8.35;;;3.22;;
18082;SDS011;9168;51.194;6.840;2023-08-06T05:40:37;9.73;;;3.15;;
18082;SDS011;9168;51.194;6.840;2023-08-06T05:43:04;10.00;;;2.97;;
18082;SDS011;9168;51.194;6.840;2023-08-06T05:45:31;8.25;;;2.97;;
18082;SDS011;9168;51.194;6.840;2023-08-06T05:47:58;9.18;;;2.70;;
18082;SDS011;9168;51.194;6.840;2023-08-06T05:50:24;7.70;;;2.90;;
18082;SDS011;9168;51.194;6.840;2023-08-06T05:52:51;5.90;;;2.38;;
18082;SDS011;9168;51.194;6.840;2023-08-06T05:55:20;5.07;;;2.30;;
18082;SDS011;9168;51.194;6.840;2023-08-06T05:57:47;6.65;;;2.50;;
18082;SDS011;9168;51.194;6.840;2023-08-06T06:00:14;5.90;;;2.30;;
18082;SDS011;9168;51.194;6.840;2023-08-06T06:02:41;6.40;;;2.15;;
18082;SDS011;9168;51.194;6.840;2023-08-06T06:05:08;5.72;;;2.33;;
18082;SDS011;9168;51.194;6.840;2023-08-06T06:07:35;8.95;;;2.35;;
18082;SDS011;9168;51.194;6.840;2023-08-06T06:10:02;6.53;;;2.60;;
18082;SDS011;9168;51.194;6.840;2023-08-06T06:12:30;7.13;;;2.40;;
18082;SDS011;9168;51.194;6.840;2023-08-06T06:14:57;8.60;;;2.80;;
18082;SDS011;9168;51.194;6.840;2023-08-06T06:17:26;9.50;;;2.30;;
18082;SDS011;9168;51.194;6.840;2023-08-06T06:19:52;12.30;;;2.40;;
18082;SDS011;9168;51.194;6.840;2023-08-06T06:22:19;9.60;;;2.58;;
18082;SDS011;9168;51.194;6.840;2023-08-06T06:24:46;5.22;;;2.63;;
18082;SDS011;9168;51.194;6.840;2023-08-06T06:27:13;7.65;;;2.08;;
18082;SDS011;9168;51.194;6.840;2023-08-06T06:29:41;9.80;;;2.30;;
18082;SDS011;9168;51.194;6.840;2023-08-06T06:32:08;11.30;;;2.40;;
18082;SDS011;9168;51.194;6.840;2023-08-06T06:34:35;5.70;;;2.13;;
18082;SDS011;9168;51.194;6.840;2023-08-06T06:37:02;5.88;;;1.98;;
18082;SDS011;9168;51.194;6.840;2023-08-06T06:39:29;4.90;;;2.03;;
18082;SDS011;9168;51.194;6.840;2023-08-06T06:41:56;7.35;;;2.55;;
18082;SDS011;9168;51.194;6.840;2023-08-06T06:44:23;5.68;;;2.22;;
18082;SDS011;9168;51.194;6.840;2023-08-06T06:46:51;9.35;;;2.50;;
18082;SDS011;9168;51.194;6.840;2023-08-06T06:49:18;7.05;;;2.13;;
18082;SDS011;9168;51.194;6.840;2023-08-06T06:51:45;6.15;;;2.20;;
18082;SDS011;9168;51.194;6.840;2023-08-06T06:54:12;5.18;;;2.05;;
18082;SDS011;9168;51.194;6.840;2023-08-06T06:56:38;12.77;;;2.60;;
18082;SDS011;9168;51.194;6.840;2023-08-06T06:59:05;7.63;;;2.50;;
18082;SDS011;9168;51.194;6.840;2023-08-06T07:01:33;6.57;;;2.30;;
18082;SDS011;9168;51.194;6.840;2023-08-06T07:04:02;5.95;;;2.33;;
18082;SDS011;9168;51.194;6.840;2023-08-06T07:06:30;7.20;;;2.60;;
18082;SDS011;9168;51.194;6.840;2023-08-06T07:08:57;5.45;;;2.00;;
18082;SDS011;9168;51.194;6.840;2023-08-06T07:11:23;7.93;;;2.33;;
18082;SDS011;9168;51.194;6.840;2023-08-06T07:13:55;7.03;;;2.20;;
18082;SDS011;9168;51.194;6.840;2023-08-06T07:16:24;8.20;;;2.60;;
18082;SDS011;9168;51.194;6.840;2023-08-06T07:18:51;10.63;;;2.67;;
18082;SDS011;9168;51.194;6.840;2023-08-06T07:21:20;5.53;;;2.28;;
18082;SDS011;9168;51.194;6.840;2023-08-06T07:23:47;5.18;;;1.90;;
18082;SDS011;9168;51.194;6.840;2023-08-06T07:26:15;3.85;;;2.35;;
18082;SDS011;9168;51.194;6.840;2023-08-06T07:28:42;10.95;;;2.15;;
18082;SDS011;9168;51.194;6.840;2023-08-06T07:31:09;6.45;;;2.45;;
18082;SDS011;9168;51.194;6.840;2023-08-06T07:33:37;9.88;;;2.70;;
18082;SDS011;9168;51.194;6.840;2023-08-06T07:36:10;8.07;;;2.97;;
18082;SDS011;9168;51.194;6.840;2023-08-06T07:38:40;5.25;;;2.65;;
18082;SDS011;9168;51.194;6.840;2023-08-06T07:41:08;5.75;;;2.55;;
18082;SDS011;9168;51.194;6.840;2023-08-06T07:43:35;7.95;;;2.33;;
18082;SDS011;9168;51.194;6.840;2023-08-06T07:46:02;5.40;;;2.40;;
18082;SDS011;9168;51.194;6.840;2023-08-06T07:48:30;5.97;;;2.53;;
18082;SDS011;9168;51.194;6.840;2023-08-06T07:50:57;7.15;;;2.30;;
18082;SDS011;9168;51.194;6.840;2023-08-06T07:53:25;5.95;;;2.28;;
18082;SDS011;9168;51.194;6.840;2023-08-06T07:55:55;6.70;;;2.55;;
18082;SDS011;9168;51.194;6.840;2023-08-06T07:58:23;3.25;;;2.10;;
18082;SDS011;9168;51.194;6.840;2023-08-06T08:00:50;5.28;;;2.13;;
18082;SDS011;9168;51.194;6.840;2023-08-06T08:03:19;4.13;;;2.17;;
18082;SDS011;9168;51.194;6.840;2023-08-06T08:05:45;6.20;;;2.10;;
18082;SDS011;9168;51.194;6.840;2023-08-06T08:08:12;6.28;;;2.17;;
18082;SDS011;9168;51.194;6.840;2023-08-06T08:10:39;4.35;;;1.80;;
18082;SDS011;9168;51.194;6.840;2023-08-06T08:13:11;4.63;;;1.88;;
18082;SDS011;9168;51.194;6.840;2023-08-06T08:15:38;3.80;;;2.20;;
18082;SDS011;9168;51.194;6.840;2023-08-06T08:18:05;5.05;;;1.90;;
18082;SDS011;9168;51.194;6.840;2023-08-06T08:20:32;6.13;;;1.98;;
18082;SDS011;9168;51.194;6.840;2023-08-06T08:23:00;3.08;;;1.98;;
18082;SDS011;9168;51.194;6.840;2023-08-06T08:25:28;4.57;;;2.00;;
18082;SDS011;9168;51.194;6.840;2023-08-06T08:27:56;3.30;;;2.10;;
18082;SDS011;9168;51.194;6.840;2023-08-06T08:30:25;6.07;;;2.83;;
18082;SDS011;9168;51.194;6.840;2023-08-06T08:32:52;6.03;;;3.03;;
18082;SDS011;9168;51.194;6.840;2023-08-06T08:35:19;5.00;;;2.80;;
18082;SDS011;9168;51.194;6.840;2023-08-06T08:37:45;7.75;;;3.60;;
18082;SDS011;9168;51.194;6.840;2023-08-06T08:40:13;10.30;;;3.10;;
18082;SDS011;9168;51.194;6.840;2023-08-06T08:42:41;5.75;;;3.20;;
18082;SDS011;9168;51.194;6.840;2023-08-06T08:45:10;7.85;;;4.05;;
18082;SDS011;9168;51.194;6.840;2023-08-06T08:47:41;8.07;;;3.75;;
18082;SDS011;9168;51.194;6.840;2023-08-06T08:50:09;8.30;;;4.15;;
18082;SDS011;9168;51.194;6.840;2023-08-06T08:52:38;11.30;;;4.35;;
18082;SDS011;9168;51.194;6.840;2023-08-06T08:55:06;11.13;;;3.78;;
18082;SDS011;9168;51.194;6.840;2023-08-06T08:57:34;8.07;;;3.78;;
18082;SDS011;9168;51.194;6.840;2023-08-06T09:00:01;7.47;;;4.57;;
18082;SDS011;9168;51.194;6.840;2023-08-06T09:02:28;5.93;;;3.75;;
18082;SDS011;9168;51.194;6.840;2023-08-06T09:04:59;7.50;;;3.20;;
18082;SDS011;9168;51.194;6.840;2023-08-06T09:07:28;5.45;;;2.85;;
18082;SDS011;9168;51.194;6.840;2023-08-06T09:09:59;12.23;;;3.20;;
18082;SDS011;9168;51.194;6.840;2023-08-06T09:12:30;5.82;;;2.78;;
18082;SDS011;9168;51.194;6.840;2023-08-06T09:14:57;6.70;;;2.88;;
18082;SDS011;9168;51.194;6.840;2023-08-06T09:17:23;3.95;;;2.67;;
18082;SDS011;9168;51.194;6.840;2023-08-06T09:19:50;8.68;;;2.67;;
18082;SDS011;9168;51.194;6.840;2023-08-06T09:22:19;3.58;;;2.17;;
18082;SDS011;9168;51.194;6.840;2023-08-06T09:24:46;4.40;;;2.42;;
18082;SDS011;9168;51.194;6.840;2023-08-06T09:27:13;4.45;;;1.95;;
18082;SDS011;9168;51.194;6.840;2023-08-06T09:29:41;4.47;;;2.47;;
18082;SDS011;9168;51.194;6.840;2023-08-06T09:32:10;3.90;;;2.30;;
18082;SDS011;9168;51.194;6.840;2023-08-06T09:34:38;4.50;;;2.35;;
18082;SDS011;9168;51.194;6.840;2023-08-06T09:37:06;3.08;;;2.03;;
18082;SDS011;9168;51.194;6.840;2023-08-06T09:39:35;7.22;;;2.10;;
18082;SDS011;9168;51.194;6.840;2023-08-06T09:42:04;5.13;;;1.88;;
18082;SDS011;9168;51.194;6.840;2023-08-06T09:44:31;5.10;;;2.30;;
18082;SDS011;9168;51.194;6.840;2023-08-06T09:46:59;6.15;;;2.20;;
18082;SDS011;9168;51.194;6.840;2023-08-06T09:49:28;10.93;;;2.85;;
18082;SDS011;9168;51.194;6.840;2023-08-06T09:52:06;11.98;;;3.00;;
18082;SDS011;9168;51.194;6.840;2023-08-06T09:54:37;10.18;;;3.22;;
18082;SDS011;9168;51.194;6.840;2023-08-06T09:57:05;12.35;;;3.83;;
18082;SDS011;9168;51.194;6.840;2023-08-06T09:59:32;9.80;;;3.25;;
18082;SDS011;9168;51.194;6.840;2023-08-06T10:01:59;9.15;;;3.33;;
18082;SDS011;9168;51.194;6.840;2023-08-06T10:04:26;8.73;;;3.42;;
18082;SDS011;9168;51.194;6.840;2023-08-06T10:06:55;10.20;;;3.90;;
18082;SDS011;9168;51.194;6.840;2023-08-06T10:09:24;11.13;;;3.97;;
18082;SDS011;9168;51.194;6.840;2023-08-06T10:11:52;7.05;;;3.97;;
18082;SDS011;9168;51.194;6.840;2023-08-06T10:14:21;16.65;;;3.92;;
18082;SDS011;9168;51.194;6.840;2023-08-06T10:16:52;11.35;;;3.10;;
18082;SDS011;9168;51.194;6.840;2023-08-06T10:19:20;8.02;;;2.42;;
18082;SDS011;9168;51.194;6.840;2023-08-06T10:24:45;7.13;;;2.60;;
18082;SDS011;9168;51.194;6.840;2023-08-06T10:27:21;8.25;;;2.65;;
18082;SDS011;9168;51.194;6.840;2023-08-06T10:29:48;10.05;;;2.63;;
18082;SDS011;9168;51.194;6.840;2023-08-06T10:32:15;13.30;;;2.60;;
18082;SDS011;9168;51.194;6.840;2023-08-06T10:34:53;5.18;;;2.10;;
18082;SDS011;9168;51.194;6.840;2023-08-06T10:37:21;5.55;;;1.80;;
18082;SDS011;9168;51.194;6.840;2023-08-06T10:39:49;5.25;;;1.80;;
18082;SDS011;9168;51.194;6.840;2023-08-06T10:42:22;7.20;;;2.28;;
18082;SDS011;9168;51.194;6.840;2023-08-06T10:45:11;6.13;;;1.80;;
18082;SDS011;9168;51.194;6.840;2023-08-06T10:47:40;1.63;;;1.00;;
18082;SDS011;9168;51.194;6.840;2023-08-06T10:50:07;0.73;;;0.70;;
18082;SDS011;9168;51.194;6.840;2023-08-06T10:52:37;1.10;;;0.80;;
18082;SDS011;9168;51.194;6.840;2023-08-06T10:55:04;8.75;;;0.80;;
18082;SDS011;9168;51.194;6.840;2023-08-06T10:57:33;3.03;;;1.00;;
18082;SDS011;9168;51.194;6.840;2023-08-06T11:00:00;6.93;;;1.08;;
18082;SDS011;9168;51.194;6.840;2023-08-06T11:02:27;2.35;;;1.20;;
18082;SDS011;9168;51.194;6.840;2023-08-06T11:04:59;3.22;;;1.25;;
18082;SDS011;9168;51.194;6.840;2023-08-06T11:07:31;3.45;;;1.10;;
18082;SDS011;9168;51.194;6.840;2023-08-06T11:10:00;2.20;;;1.40;;
18082;SDS011;9168;51.194;6.840;2023-08-06T11:12:29;4.95;;;1.17;;
18082;SDS011;9168;51.194;6.840;2023-08-06T11:14:57;1.85;;;1.27;;
18082;SDS011;9168;51.194;6.840;2023-08-06T11:17:24;4.22;;;1.58;;
18082;SDS011;9168;51.194;6.840;2023-08-06T11:19:51;6.03;;;1.42;;
18082;SDS011;9168;51.194;6.840;2023-08-06T11:22:20;6.05;;;1.23;;
18082;SDS011;9168;51.194;6.840;2023-08-06T11:24:47;3.30;;;1.50;;
18082;SDS011;9168;51.194;6.840;2023-08-06T11:27:15;2.83;;;1.58;;
18082;SDS011;9168;51.194;6.840;2023-08-06T11:29:43;3.22;;;1.60;;
18082;SDS011;9168;51.194;6.840;2023-08-06T11:32:11;5.10;;;1.80;;
18082;SDS011;9168;51.194;6.840;2023-08-06T11:34:39;5.63;;;2.42;;
18082;SDS011;9168;51.194;6.840;2023-08-06T11:37:06;9.43;;;2.58;;
18082;SDS011;9168;51.194;6.840;2023-08-06T11:39:33;7.63;;;3.10;;
18082;SDS011;9168;51.194;6.840;2023-08-06T11:42:02;7.40;;;2.88;;
18082;SDS011;9168;51.194;6.840;2023-08-06T11:44:29;6.57;;;2.85;;
18082;SDS011;9168;51.194;6.840;2023-08-06T11:46:58;6.65;;;3.22;;
18082;SDS011;9168;51.194;6.840;2023-08-06T11:49:44;7.88;;;3.15;;
18082;SDS011;9168;51.194;6.840;2023-08-06T11:52:16;7.55;;;3.55;;
18082;SDS011;9168;51.194;6.840;2023-08-06T11:54:45;7.82;;;3.33;;
18082;SDS011;9168;51.194;6.840;2023-08-06T11:57:26;7.47;;;3.30;;
18082;SDS011;9168;51.194;6.840;2023-08-06T11:59:53;9.13;;;3.50;;
18082;SDS011;9168;51.194;6.840;2023-08-06T12:02:23;8.13;;;3.67;;
18082;SDS011;9168;51.194;6.840;2023-08-06T12:05:03;10.98;;;3.42;;
18082;SDS011;9168;51.194;6.840;2023-08-06T12:07:36;11.73;;;4.10;;
18082;SDS011;9168;51.194;6.840;2023-08-06T12:10:04;9.68;;;3.50;;
18082;SDS011;9168;51.194;6.840;2023-08-06T12:12:32;14.00;;;3.47;;
18082;SDS011;9168;51.194;6.840;2023-08-06T12:15:00;8.15;;;3.38;;
18082;SDS011;9168;51.194;6.840;2023-08-06T12:17:27;10.73;;;3.35;;
18082;SDS011;9168;51.194;6.840;2023-08-06T12:19:54;9.40;;;3.40;;
18082;SDS011;9168;51.194;6.840;2023-08-06T12:22:22;8.90;;;3.95;;
18082;SDS011;9168;51.194;6.840;2023-08-06T12:24:49;8.98;;;3.78;;
18082;SDS011;9168;51.194;6.840;2023-08-06T12:27:16;15.98;;;4.13;;
18082;SDS011;9168;51.194;6.840;2023-08-06T12:29:43;12.70;;;4.18;;
18082;SDS011;9168;51.194;6.840;2023-08-06T12:32:13;9.55;;;3.65;;
18082;SDS011;9168;51.194;6.840;2023-08-06T12:34:41;8.90;;;3.60;;
18082;SDS011;9168;51.194;6.840;2023-08-06T12:37:08;8.40;;;3.22;;
18082;SDS011;9168;51.194;6.840;2023-08-06T12:39:37;9.20;;;3.50;;
18082;SDS011;9168;51.194;6.840;2023-08-06T12:42:04;12.23;;;3.78;;
18082;SDS011;9168;51.194;6.840;2023-08-06T12:44:32;11.32;;;3.47;;
18082;SDS011;9168;51.194;6.840;2023-08-06T12:46:59;10.43;;;3.45;;
18082;SDS011;9168;51.194;6.840;2023-08-06T12:49:26;13.50;;;3.63;;
18082;SDS011;9168;51.194;6.840;2023-08-06T12:51:53;10.60;;;4.10;;
18082;SDS011;9168;51.194;6.840;2023-08-06T12:54:22;6.90;;;3.58;;
18082;SDS011;9168;51.194;6.840;2023-08-06T12:56:50;7.93;;;3.35;;
18082;SDS011;9168;51.194;6.840;2023-08-06T12:59:18;8.65;;;3.70;;
18082;SDS011;9168;51.194;6.840;2023-08-06T13:01:45;8.57;;;3.65;;
18082;SDS011;9168;51.194;6.840;2023-08-06T13:04:13;5.32;;;3.20;;
18082;SDS011;9168;51.194;6.840;2023-08-06T13:06:40;9.48;;;3.65;;
18082;SDS011;9168;51.194;6.840;2023-08-06T13:09:07;11.57;;;4.10;;
18082;SDS011;9168;51.194;6.840;2023-08-06T13:11:34;8.90;;;3.47;;
18082;SDS011;9168;51.194;6.840;2023-08-06T13:14:07;9.75;;;2.97;;
18082;SDS011;9168;51.194;6.840;2023-08-06T13:16:35;6.85;;;2.45;;
18082;SDS011;9168;51.194;6.840;2023-08-06T13:19:03;7.95;;;2.03;;
18082;SDS011;9168;51.194;6.840;2023-08-06T13:21:32;12.82;;;2.38;;
18082;SDS011;9168;51.194;6.840;2023-08-06T13:24:00;6.60;;;2.92;;
18082;SDS011;9168;51.194;6.840;2023-08-06T13:26:27;9.13;;;2.58;;
18082;SDS011;9168;51.194;6.840;2023-08-06T13:28:57;7.28;;;2.80;;
18082;SDS011;9168;51.194;6.840;2023-08-06T13:31:26;6.65;;;2.33;;
18082;SDS011;9168;51.194;6.840;2023-08-06T13:33:54;4.82;;;2.40;;
18082;SDS011;9168;51.194;6.840;2023-08-06T13:36:23;7.07;;;2.17;;
18082;SDS011;9168;51.194;6.840;2023-08-06T13:38:50;5.72;;;1.92;;
18082;SDS011;9168;51.194;6.840;2023-08-06T13:41:17;11.27;;;2.60;;
18082;SDS011;9168;51.194;6.840;2023-08-06T13:43:44;7.30;;;2.47;;
18082;SDS011;9168;51.194;6.840;2023-08-06T13:46:11;6.70;;;2.67;;
18082;SDS011;9168;51.194;6.840;2023-08-06T13:48:42;4.75;;;2.40;;
18082;SDS011;9168;51.194;6.840;2023-08-06T13:51:10;4.32;;;2.50;;
18082;SDS011;9168;51.194;6.840;2023-08-06T13:53:37;8.77;;;2.50;;
18082;SDS011;9168;51.194;6.840;2023-08-06T13:56:04;8.43;;;2.75;;
18082;SDS011;9168;51.194;6.840;2023-08-06T13:58:31;12.55;;;3.47;;
18082;SDS011;9168;51.194;6.840;2023-08-06T14:00:59;5.25;;;2.53;;
18082;SDS011;9168;51.194;6.840;2023-08-06T14:03:26;7.38;;;3.33;;
18082;SDS011;9168;51.194;6.840;2023-08-06T14:05:54;9.57;;;3.08;;
18082;SDS011;9168;51.194;6.840;2023-08-06T14:08:21;7.97;;;3.00;;
18082;SDS011;9168;51.194;6.840;2023-08-06T14:10:48;8.70;;;3.13;;
18082;SDS011;9168;51.194;6.840;2023-08-06T14:13:15;9.48;;;3.47;;
18082;SDS011;9168;51.194;6.840;2023-08-06T14:15:43;6.70;;;2.60;;
18082;SDS011;9168;51.194;6.840;2023-08-06T14:18:12;10.55;;;3.25;;
18082;SDS011;9168;51.194;6.840;2023-08-06T14:20:38;9.10;;;3.67;;
18082;SDS011;9168;51.194;6.840;2023-08-06T14:23:07;6.30;;;3.22;;
18082;SDS011;9168;51.194;6.840;2023-08-06T14:25:34;7.57;;;3.25;;
18082;SDS011;9168;51.194;6.840;2023-08-06T14:28:01;9.50;;;2.85;;
18082;SDS011;9168;51.194;6.840;2023-08-06T14:30:28;8.88;;;2.97;;
18082;SDS011;9168;51.194;6.840;2023-08-06T14:32:55;10.15;;;2.88;;
18082;SDS011;9168;51.194;6.840;2023-08-06T14:35:22;6.20;;;2.70;;
18082;SDS011;9168;51.194;6.840;2023-08-06T14:37:49;11.07;;;3.05;;
18082;SDS011;9168;51.194;6.840;2023-08-06T14:40:17;6.45;;;2.70;;
18082;SDS011;9168;51.194;6.840;2023-08-06T14:42:44;8.05;;;3.03;;
18082;SDS011;9168;51.194;6.840;2023-08-06T14:45:11;8.52;;;2.70;;
18082;SDS011;9168;51.194;6.840;2023-08-06T14:47:38;6.70;;;2.78;;
18082;SDS011;9168;51.194;6.840;2023-08-06T14:50:05;8.93;;;2.42;;
18082;SDS011;9168;51.194;6.840;2023-08-06T14:52:32;7.15;;;2.70;;
18082;SDS011;9168;51.194;6.840;2023-08-06T14:54:59;6.00;;;2.47;;
18082;SDS011;9168;51.194;6.840;2023-08-06T14:57:30;5.93;;;2.35;;
18082;SDS011;9168;51.194;6.840;2023-08-06T14:59:57;6.35;;;2.40;;
18082;SDS011;9168;51.194;6.840;2023-08-06T15:02:24;4.18;;;2.25;;
18082;SDS011;9168;51.194;6.840;2023-08-06T15:04:52;9.45;;;2.47;;